Time;durP1;ratioP1;P1;durP2;ratioP2;P2;SDS_P1;SDS_P2;PMS_P1;PMS_P2;Temp;Humidity;BMP_temperature;BMP_pressure;BME280_temperature;BME280_humidity;BME280_pressure;Samples;Min_cycle;Max_cycle;Signal;HPM_P1;HPM_P2
2021/12/06 00:01:35;;;;;;;6.03;5.38;;;2.90;99.90;;;;;;5051202;27;20206;-84
2021/12/06 00:04:08;;;;;;;6.07;5.50;;;2.80;99.90;;;;;;5050948;28;20201;-85
2021/12/06 00:06:40;;;;;;;4.90;4.50;;;2.80;99.90;;;;;;5050912;28;20281;-84
2021/12/06 00:09:12;;;;;;;6.03;5.53;;;2.80;99.90;;;;;;5050106;28;20234;-84
2021/12/06 00:11:40;;;;;;;5.22;4.78;;;2.80;99.90;;;;;;5050243;27;20258;-85
2021/12/06 00:14:11;;;;;;;5.37;4.83;;;2.80;99.90;;;;;;5051186;27;20210;-84
2021/12/06 00:16:39;;;;;;;6.00;4.87;;;2.80;99.90;;;;;;5051219;28;20283;-85
2021/12/06 00:19:08;;;;;;;5.22;4.72;;;2.70;99.90;;;;;;5050887;27;20231;-85
2021/12/06 00:21:36;;;;;;;5.37;4.90;;;2.80;99.90;;;;;;5051213;28;20201;-84
2021/12/06 00:24:05;;;;;;;5.20;4.72;;;2.70;99.90;;;;;;5051081;27;20210;-85
2021/12/06 00:26:33;;;;;;;3.78;3.47;;;2.70;99.90;;;;;;5051012;28;20325;-85
2021/12/06 00:29:02;;;;;;;5.00;4.50;;;2.70;99.90;;;;;;5050139;28;20253;-85
2021/12/06 00:31:34;;;;;;;5.03;3.78;;;2.70;99.90;;;;;;5051211;27;20205;-85
2021/12/06 00:34:06;;;;;;;4.23;3.93;;;2.70;99.90;;;;;;5051037;27;20242;-85
2021/12/06 00:36:37;;;;;;;3.40;3.20;;;2.70;99.90;;;;;;5049588;28;20229;-85
2021/12/06 00:39:08;;;;;;;3.55;3.30;;;2.60;99.90;;;;;;5049937;28;20309;-85
2021/12/06 00:41:37;;;;;;;3.95;3.65;;;2.60;99.90;;;;;;5050537;28;20214;-85
2021/12/06 00:44:07;;;;;;;5.30;4.37;;;2.60;99.90;;;;;;5050675;28;20210;-85
2021/12/06 00:46:38;;;;;;;3.87;3.47;;;2.60;99.90;;;;;;5050817;28;20221;-85
2021/12/06 00:49:07;;;;;;;4.77;3.77;;;2.60;99.90;;;;;;5049940;27;20279;-85
2021/12/06 00:51:36;;;;;;;4.38;3.85;;;2.60;99.90;;;;;;5050586;28;20234;-86
2021/12/06 00:54:04;;;;;;;3.90;3.60;;;2.60;99.90;;;;;;5050412;28;20205;-85
2021/12/06 00:56:32;;;;;;;3.37;3.07;;;2.60;99.90;;;;;;5050589;28;20278;-85
2021/12/06 00:59:01;;;;;;;3.13;2.93;;;2.60;99.90;;;;;;5049662;27;20323;-85
2021/12/06 01:01:29;;;;;;;3.70;3.40;;;2.60;99.90;;;;;;5050289;28;20284;-85
2021/12/06 01:04:00;;;;;;;6.10;3.83;;;2.50;99.90;;;;;;5050400;28;20206;-85
2021/12/06 01:06:28;;;;;;;2.95;2.67;;;2.50;99.90;;;;;;5050071;28;20293;-85
2021/12/06 01:08:56;;;;;;;2.53;2.33;;;2.50;99.90;;;;;;5050038;27;20285;-85
2021/12/06 01:11:25;;;;;;;2.30;2.20;;;2.50;99.90;;;;;;5050699;28;20209;-85
2021/12/06 01:13:53;;;;;;;2.60;2.40;;;2.40;99.90;;;;;;5049857;27;20209;-85
2021/12/06 01:16:22;;;;;;;2.20;2.10;;;2.40;99.90;;;;;;5049881;28;20282;-85
2021/12/06 01:18:50;;;;;;;2.92;2.72;;;2.40;99.90;;;;;;5049547;27;20229;-85
2021/12/06 01:21:26;;;;;;;2.70;2.50;;;2.50;99.90;;;;;;5050356;28;20206;-85
2021/12/06 01:23:58;;;;;;;2.23;2.03;;;2.50;99.90;;;;;;5049842;27;20198;-85
2021/12/06 01:26:46;;;;;;;3.17;2.87;;;2.40;99.90;;;;;;5049907;28;20316;-85
2021/12/06 01:32:12;;;;;;;2.20;2.00;;;2.40;99.90;;;;;;5049947;28;20258;-85
2021/12/06 01:40:13;;;;;;;2.60;2.40;;;2.40;99.90;;;;;;5049074;28;20300;-86
2021/12/06 01:42:41;;;;;;;2.50;2.30;;;2.40;99.90;;;;;;5049569;28;20292;-85
2021/12/06 01:45:10;;;;;;;2.40;2.20;;;2.40;99.90;;;;;;5049385;27;20297;-85
2021/12/06 01:47:40;;;;;;;1.90;1.80;;;2.40;99.90;;;;;;5049468;27;20293;-85
2021/12/06 01:50:13;;;;;;;2.50;2.30;;;2.40;99.90;;;;;;5049072;28;20233;-85
2021/12/06 01:52:47;;;;;;;2.25;2.15;;;2.40;99.90;;;;;;5049659;28;20237;-86
2021/12/06 01:55:18;;;;;;;2.70;2.50;;;2.30;99.90;;;;;;5049652;28;20273;-86
2021/12/06 01:57:48;;;;;;;2.47;2.27;;;2.30;99.90;;;;;;5049365;27;20218;-85
2021/12/06 02:00:21;;;;;;;4.60;2.37;;;2.30;99.90;;;;;;5049080;27;20293;-85
2021/12/06 02:02:49;;;;;;;2.00;1.90;;;2.30;99.90;;;;;;5049958;27;20269;-85
2021/12/06 02:05:18;;;;;;;3.03;2.83;;;2.30;99.90;;;;;;5049733;28;20233;-86
2021/12/06 02:07:48;;;;;;;2.17;2.00;;;2.30;99.90;;;;;;5049480;28;20316;-88
2021/12/06 02:10:16;;;;;;;2.33;2.17;;;2.30;99.90;;;;;;5048912;28;20292;-88
2021/12/06 02:12:49;;;;;;;2.50;2.33;;;2.30;99.90;;;;;;5048513;27;20293;-88
2021/12/06 02:15:31;;;;;;;3.23;3.00;;;2.40;99.90;;;;;;5049454;28;20250;-88
2021/12/06 02:18:06;;;;;;;3.97;3.30;;;2.30;99.90;;;;;;5049627;27;20217;-88
2021/12/06 02:20:42;;;;;;;3.00;2.80;;;2.30;99.90;;;;;;5048909;28;20205;-88
2021/12/06 02:23:12;;;;;;;2.55;2.35;;;2.30;99.90;;;;;;5049190;28;20232;-88
2021/12/06 02:25:40;;;;;;;3.33;3.07;;;2.30;99.90;;;;;;5049271;27;20296;-88
2021/12/06 02:28:09;;;;;;;2.78;2.58;;;2.40;99.90;;;;;;5048748;28;20317;-88
2021/12/06 02:30:38;;;;;;;3.60;2.93;;;2.30;99.90;;;;;;5048771;27;20209;-88
2021/12/06 02:33:06;;;;;;;2.92;2.63;;;2.30;99.90;;;;;;5049022;28;20235;-88
2021/12/06 02:35:35;;;;;;;3.27;2.77;;;2.30;99.90;;;;;;5049255;27;20254;-88
2021/12/06 02:38:07;;;;;;;3.63;3.33;;;2.30;99.90;;;;;;5049194;27;20391;-88
2021/12/06 02:40:39;;;;;;;2.57;2.47;;;2.30;99.90;;;;;;5048837;27;20210;-86
2021/12/06 02:43:12;;;;;;;3.37;3.07;;;2.30;99.90;;;;;;5049387;28;20213;-86
2021/12/06 02:45:42;;;;;;;3.40;3.17;;;2.30;99.90;;;;;;5049074;28;20217;-85
2021/12/06 02:48:13;;;;;;;5.00;3.60;;;2.30;99.90;;;;;;5048973;28;20218;-85
2021/12/06 02:50:45;;;;;;;4.67;4.17;;;2.30;99.90;;;;;;5048442;28;20232;-86
2021/12/06 02:53:14;;;;;;;4.50;4.03;;;2.30;99.90;;;;;;5049088;27;20198;-85
2021/12/06 02:55:51;;;;;;;4.47;4.07;;;2.30;99.90;;;;;;5049071;28;20218;-86
2021/12/06 02:58:45;;;;;;;3.90;3.60;;;2.40;99.90;;;;;;5048841;28;20304;-86
2021/12/06 03:01:22;;;;;;;4.00;3.63;;;2.30;99.90;;;;;;5052306;28;20297;-85
2021/12/06 03:03:51;;;;;;;4.67;4.27;;;2.30;99.90;;;;;;5052575;28;20285;-85
2021/12/06 03:06:20;;;;;;;4.37;3.97;;;2.30;99.90;;;;;;5052441;28;20210;-85
2021/12/06 03:08:54;;;;;;;4.23;3.93;;;2.30;99.90;;;;;;5051497;28;20325;-85
2021/12/06 03:11:27;;;;;;;4.07;3.77;;;2.30;99.90;;;;;;5051815;28;20225;-85
2021/12/06 03:13:56;;;;;;;4.63;4.23;;;2.30;99.90;;;;;;5052037;28;20274;-85
2021/12/06 03:16:25;;;;;;;4.77;4.40;;;2.40;99.90;;;;;;5051527;28;20202;-86
2021/12/06 03:18:55;;;;;;;7.47;5.10;;;2.40;99.90;;;;;;5051395;28;20222;-85
2021/12/06 03:21:26;;;;;;;8.30;5.87;;;2.40;99.90;;;;;;5051787;27;20206;-85
2021/12/06 03:23:56;;;;;;;5.33;4.93;;;2.30;99.90;;;;;;5051893;28;20293;-85
2021/12/06 03:26:27;;;;;;;5.77;5.27;;;2.40;99.90;;;;;;5052062;27;20274;-86
2021/12/06 03:28:56;;;;;;;6.00;5.50;;;2.40;99.90;;;;;;5050972;28;20324;-86
2021/12/06 03:31:26;;;;;;;9.30;6.22;;;2.40;99.90;;;;;;5051564;28;20293;-86
2021/12/06 03:33:56;;;;;;;6.43;5.82;;;2.40;99.90;;;;;;5051974;27;20301;-86
2021/12/06 03:36:26;;;;;;;6.70;5.80;;;2.40;99.90;;;;;;5051663;28;20197;-86
2021/12/06 03:38:57;;;;;;;7.25;6.57;;;2.50;99.90;;;;;;5051616;28;20225;-86
2021/12/06 03:41:28;;;;;;;7.73;6.93;;;2.50;99.90;;;;;;5052023;28;20248;-86
2021/12/06 03:43:58;;;;;;;6.30;5.80;;;2.50;99.90;;;;;;5051562;28;20269;-86
2021/12/06 03:46:27;;;;;;;7.00;6.40;;;2.40;99.90;;;;;;5051682;28;20288;-86
2021/12/06 03:48:56;;;;;;;7.37;6.67;;;2.50;99.90;;;;;;5051147;28;20241;-86
2021/12/06 03:51:25;;;;;;;7.93;6.30;;;2.50;99.90;;;;;;5051717;27;20221;-85
2021/12/06 03:53:53;;;;;;;7.13;6.53;;;2.40;99.90;;;;;;5051506;28;20288;-85
2021/12/06 03:56:22;;;;;;;7.83;7.07;;;2.50;99.90;;;;;;5051349;28;20239;-85
2021/12/06 03:58:51;;;;;;;9.82;6.47;;;2.50;99.90;;;;;;5050628;27;20305;-85
2021/12/06 04:01:20;;;;;;;7.30;6.70;;;2.50;99.90;;;;;;5051766;28;20237;-86
2021/12/06 04:03:49;;;;;;;7.13;6.47;;;2.50;99.90;;;;;;5051689;27;20227;-86
2021/12/06 04:06:18;;;;;;;6.30;5.77;;;2.50;99.90;;;;;;5051533;28;20294;-86
2021/12/06 04:08:47;;;;;;;7.83;7.03;;;2.60;99.90;;;;;;5050451;28;20254;-86
2021/12/06 04:11:16;;;;;;;7.70;6.97;;;2.60;99.90;;;;;;5050947;28;20197;-85
2021/12/06 04:13:44;;;;;;;8.23;7.30;;;2.60;99.90;;;;;;5051364;27;20205;-86
2021/12/06 04:16:14;;;;;;;8.63;7.93;;;2.50;99.90;;;;;;5050955;28;20212;-85
2021/12/06 04:18:43;;;;;;;7.23;6.63;;;2.60;99.90;;;;;;5050752;27;20301;-86
2021/12/06 04:21:11;;;;;;;6.75;6.10;;;2.50;99.90;;;;;;5050774;27;20261;-85
2021/12/06 04:23:41;;;;;;;10.23;8.27;;;2.60;99.90;;;;;;5050783;27;20288;-86
2021/12/06 04:26:09;;;;;;;8.60;7.78;;;2.60;99.90;;;;;;5051027;28;20252;-86
2021/12/06 04:28:43;;;;;;;9.23;8.20;;;2.60;99.90;;;;;;5050613;28;20222;-86
2021/12/06 04:31:12;;;;;;;9.23;8.30;;;2.60;99.90;;;;;;5051066;28;20229;-86
2021/12/06 04:33:42;;;;;;;9.50;8.50;;;2.60;99.90;;;;;;5050867;28;20206;-86
2021/12/06 04:36:10;;;;;;;9.43;8.60;;;2.70;99.90;;;;;;5050824;28;20201;-85
2021/12/06 04:38:39;;;;;;;10.43;9.43;;;2.60;99.90;;;;;;5050473;28;20225;-85
2021/12/06 04:41:07;;;;;;;10.37;9.37;;;2.60;99.90;;;;;;5050508;27;20292;-85
2021/12/06 04:43:36;;;;;;;9.77;8.85;;;2.60;99.90;;;;;;5050588;28;20305;-86
2021/12/06 04:46:04;;;;;;;8.73;7.72;;;2.60;99.90;;;;;;5050819;27;20237;-86
2021/12/06 04:48:33;;;;;;;9.87;8.97;;;2.60;99.90;;;;;;5050821;27;20218;-86
2021/12/06 04:51:04;;;;;;;9.83;8.83;;;2.60;99.90;;;;;;5050158;27;20237;-86
2021/12/06 04:53:37;;;;;;;8.87;7.83;;;2.70;99.90;;;;;;5050746;28;20297;-86
2021/12/06 04:56:12;;;;;;;9.45;8.55;;;2.70;99.90;;;;;;5050437;28;20248;-86
2021/12/06 04:58:47;;;;;;;8.93;8.05;;;2.60;99.90;;;;;;5049858;28;20245;-85
2021/12/06 05:01:20;;;;;;;21.67;9.30;;;2.70;99.90;;;;;;5050545;28;20201;-86
2021/12/06 05:03:51;;;;;;;10.88;9.00;;;2.70;99.90;;;;;;5050620;27;20265;-86
2021/12/06 05:06:24;;;;;;;13.02;9.02;;;2.70;99.90;;;;;;5050783;28;20240;-85
2021/12/06 05:08:55;;;;;;;9.02;8.15;;;2.70;99.90;;;;;;5050090;28;20316;-86
2021/12/06 05:11:26;;;;;;;9.32;8.13;;;2.70;99.90;;;;;;5049268;27;20336;-85
2021/12/06 05:13:56;;;;;;;10.20;9.13;;;2.70;99.90;;;;;;5050387;27;20209;-85
2021/12/06 05:16:26;;;;;;;9.63;8.40;;;2.60;99.90;;;;;;5049943;27;20201;-85
2021/12/06 05:18:55;;;;;;;15.93;9.20;;;2.70;99.90;;;;;;5049577;28;20236;-85
2021/12/06 05:21:25;;;;;;;8.90;8.00;;;2.70;99.90;;;;;;5049616;27;20282;-85
2021/12/06 05:23:53;;;;;;;17.50;7.95;;;2.70;99.90;;;;;;5050276;27;20210;-85
2021/12/06 05:26:22;;;;;;;9.68;8.55;;;2.70;99.90;;;;;;5050097;28;20205;-85
2021/12/06 05:28:55;;;;;;;9.38;8.38;;;2.70;99.90;;;;;;5049512;28;20291;-85
2021/12/06 05:31:24;;;;;;;8.88;7.75;;;2.70;99.90;;;;;;5050242;27;20262;-85
2021/12/06 05:33:58;;;;;;;11.38;9.68;;;2.70;99.90;;;;;;5050232;27;20206;-85
2021/12/06 05:36:29;;;;;;;9.10;8.20;;;2.70;99.90;;;;;;5049892;27;20288;-84
2021/12/06 05:38:57;;;;;;;12.93;8.90;;;2.70;99.90;;;;;;5049381;28;20309;-85
2021/12/06 05:41:26;;;;;;;10.35;8.35;;;2.70;99.90;;;;;;5049768;27;20266;-85
2021/12/06 05:43:54;;;;;;;9.55;8.52;;;2.70;99.90;;;;;;5049757;27;20232;-85
2021/12/06 05:46:22;;;;;;;12.68;10.60;;;2.70;99.90;;;;;;5049957;27;20301;-85
2021/12/06 05:48:51;;;;;;;9.75;8.82;;;2.70;99.90;;;;;;5049064;28;20253;-85
2021/12/06 05:51:20;;;;;;;9.75;8.68;;;2.70;99.90;;;;;;5049878;28;20209;-85
2021/12/06 05:53:50;;;;;;;9.70;8.70;;;2.70;99.90;;;;;;5050166;28;20217;-85
2021/12/06 05:56:18;;;;;;;9.90;8.93;;;2.70;99.90;;;;;;5049525;27;20240;-85
2021/12/06 05:58:47;;;;;;;9.43;8.40;;;2.70;99.90;;;;;;5049145;27;20317;-85
2021/12/06 06:01:15;;;;;;;14.00;8.45;;;2.70;99.90;;;;;;5049128;28;20198;-85
2021/12/06 06:03:49;;;;;;;8.70;7.80;;;2.70;99.90;;;;;;5049462;28;20227;-85
2021/12/06 06:06:18;;;;;;;9.70;8.73;;;2.70;99.90;;;;;;5049510;28;20305;-85
2021/12/06 06:08:46;;;;;;;8.97;8.00;;;2.80;99.90;;;;;;5048607;28;20245;-85
2021/12/06 06:11:17;;;;;;;10.38;9.10;;;2.80;99.90;;;;;;5048868;28;20266;-85
2021/12/06 06:13:45;;;;;;;11.15;8.95;;;2.80;99.90;;;;;;5048161;28;20197;-85
2021/12/06 06:16:18;;;;;;;9.87;7.87;;;2.80;99.90;;;;;;5049412;28;20250;-85
2021/12/06 06:18:46;;;;;;;9.00;8.10;;;2.80;99.90;;;;;;5048814;28;20222;-85
2021/12/06 06:21:17;;;;;;;10.35;9.30;;;2.80;99.90;;;;;;5049196;27;20285;-85
2021/12/06 06:23:45;;;;;;;9.82;8.23;;;2.80;99.90;;;;;;5049188;27;20312;-85
2021/12/06 06:26:14;;;;;;;11.37;8.40;;;2.80;99.90;;;;;;5049654;27;20209;-85
2021/12/06 06:28:43;;;;;;;10.90;9.30;;;2.80;99.90;;;;;;5049003;28;20230;-85
2021/12/06 06:31:12;;;;;;;8.00;7.15;;;2.80;99.90;;;;;;5048913;27;20257;-85
2021/12/06 06:33:40;;;;;;;9.23;7.53;;;2.80;99.90;;;;;;5050790;27;20213;-85
2021/12/06 06:36:11;;;;;;;9.68;8.13;;;2.80;99.90;;;;;;5052418;27;20240;-85
2021/12/06 06:38:40;;;;;;;8.32;6.65;;;2.80;99.90;;;;;;5052693;27;20232;-85
2021/12/06 06:41:08;;;;;;;9.05;7.30;;;2.80;99.90;;;;;;5052194;28;20294;-85
2021/12/06 06:43:37;;;;;;;13.68;8.68;;;2.80;99.90;;;;;;5052198;28;20266;-85
2021/12/06 06:46:07;;;;;;;9.52;8.55;;;2.80;99.90;;;;;;5052327;27;20259;-85
2021/12/06 06:48:36;;;;;;;8.87;8.00;;;2.80;99.90;;;;;;5052283;28;20222;-85
2021/12/06 06:51:04;;;;;;;8.87;7.47;;;2.80;99.90;;;;;;5051738;28;20304;-85
2021/12/06 06:53:33;;;;;;;14.50;8.98;;;2.80;99.90;;;;;;5052042;27;20202;-85
2021/12/06 06:56:02;;;;;;;9.47;8.57;;;2.80;99.90;;;;;;5052427;28;20214;-85
2021/12/06 06:58:30;;;;;;;9.40;8.27;;;2.80;99.90;;;;;;5052258;28;20234;-85
2021/12/06 07:01:07;;;;;;;11.57;8.48;;;2.80;99.90;;;;;;5051458;27;20293;-84
2021/12/06 07:03:35;;;;;;;9.23;8.27;;;2.80;99.90;;;;;;5052047;28;20201;-85
2021/12/06 07:06:05;;;;;;;9.10;8.20;;;2.80;99.90;;;;;;5052206;27;20225;-85
2021/12/06 07:08:33;;;;;;;8.82;7.93;;;2.80;99.90;;;;;;5052095;27;20275;-85
2021/12/06 07:11:04;;;;;;;10.93;8.00;;;2.90;99.90;;;;;;5051493;27;20314;-85
2021/12/06 07:13:37;;;;;;;9.95;7.78;;;2.90;99.90;;;;;;5052094;28;20255;-85
2021/12/06 07:16:09;;;;;;;10.60;7.97;;;2.90;99.90;;;;;;5052154;27;20228;-85
2021/12/06 07:18:38;;;;;;;9.30;8.40;;;2.90;99.90;;;;;;5052001;28;20301;-85
2021/12/06 07:21:07;;;;;;;8.80;7.93;;;2.80;99.90;;;;;;5051856;27;20270;-85
2021/12/06 07:23:38;;;;;;;10.32;8.35;;;2.90;99.90;;;;;;5052289;28;20205;-84
2021/12/06 07:26:07;;;;;;;9.10;8.18;;;2.90;99.90;;;;;;5052078;28;20210;-85
2021/12/06 07:28:36;;;;;;;11.50;7.93;;;2.90;99.90;;;;;;5051521;28;20271;-85
2021/12/06 07:31:06;;;;;;;10.38;8.05;;;2.90;99.90;;;;;;5051227;27;20222;-85
2021/12/06 07:33:36;;;;;;;9.60;8.40;;;2.90;99.90;;;;;;5052023;27;20201;-85
2021/12/06 07:36:05;;;;;;;10.40;7.53;;;3.00;99.90;;;;;;5052223;27;20224;-85
2021/12/06 07:38:37;;;;;;;9.35;8.43;;;3.00;99.90;;;;;;5051912;27;20260;-85
2021/12/06 07:41:07;;;;;;;8.43;7.63;;;3.00;99.90;;;;;;5051297;27;20201;-84
2021/12/06 07:43:36;;;;;;;11.47;8.90;;;3.00;99.90;;;;;;5051783;28;20297;-84
2021/12/06 07:46:06;;;;;;;11.82;8.23;;;3.00;99.90;;;;;;5050928;28;20230;-85
2021/12/06 07:48:37;;;;;;;19.60;9.13;;;3.00;99.90;;;;;;5051583;28;20228;-84
2021/12/06 07:51:06;;;;;;;12.20;9.10;;;3.00;99.90;;;;;;5051504;28;20286;-85
2021/12/06 07:53:38;;;;;;;9.18;8.20;;;3.00;99.90;;;;;;5051772;27;20233;-85
2021/12/06 07:56:07;;;;;;;9.23;8.43;;;3.00;99.90;;;;;;5051598;28;20245;-85
2021/12/06 07:58:35;;;;;;;10.52;9.48;;;3.00;99.90;;;;;;5051441;28;20222;-84
2021/12/06 08:01:04;;;;;;;11.43;10.20;;;3.00;99.90;;;;;;5051362;28;20194;-84
2021/12/06 08:03:33;;;;;;;10.80;9.38;;;3.00;99.90;;;;;;5051412;28;20217;-85
2021/12/06 08:06:05;;;;;;;10.73;9.63;;;3.10;99.90;;;;;;5051759;28;20209;-84
2021/12/06 08:08:34;;;;;;;13.57;11.05;;;3.10;99.90;;;;;;5051338;27;20294;-84
2021/12/06 08:11:06;;;;;;;15.68;10.18;;;3.10;99.90;;;;;;5050950;28;20241;-84
2021/12/06 08:13:37;;;;;;;12.30;10.98;;;3.10;99.90;;;;;;5051579;28;20285;-84
2021/12/06 08:16:09;;;;;;;11.27;10.18;;;3.10;99.90;;;;;;5051443;27;20206;-84
2021/12/06 08:18:38;;;;;;;14.75;11.57;;;3.20;99.90;;;;;;5050624;27;20237;-84
2021/12/06 08:21:08;;;;;;;11.88;10.32;;;3.20;99.90;;;;;;5050902;27;20231;-84
2021/12/06 08:23:37;;;;;;;10.85;9.68;;;3.10;99.90;;;;;;5050993;28;20210;-84
2021/12/06 08:26:07;;;;;;;12.98;10.95;;;3.20;99.90;;;;;;5051098;27;20254;-84
2021/12/06 08:28:36;;;;;;;14.18;11.55;;;3.20;99.90;;;;;;5050924;27;20253;-84
2021/12/06 08:31:07;;;;;;;12.50;10.38;;;3.20;99.90;;;;;;5050168;28;20218;-84
2021/12/06 08:33:37;;;;;;;11.80;10.45;;;3.20;99.90;;;;;;5050858;27;20212;-84
2021/12/06 08:36:09;;;;;;;10.65;9.63;;;3.20;99.90;;;;;;5051350;28;20294;-84
2021/12/06 08:38:38;;;;;;;11.20;9.70;;;3.30;99.90;;;;;;5050737;27;20229;-84
2021/12/06 08:41:10;;;;;;;10.82;9.65;;;3.30;99.90;;;;;;5050461;27;20202;-84
2021/12/06 08:43:40;;;;;;;14.55;10.23;;;3.40;99.90;;;;;;5050564;28;20245;-84
2021/12/06 08:46:16;;;;;;;13.63;10.43;;;3.40;99.90;;;;;;5050799;28;20261;-83
2021/12/06 08:48:45;;;;;;;10.82;9.18;;;3.50;99.90;;;;;;5050419;27;20229;-84
2021/12/06 08:51:19;;;;;;;10.32;9.27;;;3.50;99.90;;;;;;5050765;27;20221;-84
2021/12/06 08:53:51;;;;;;;14.55;9.85;;;3.60;99.90;;;;;;5050731;27;20249;-84
2021/12/06 08:56:21;;;;;;;10.73;9.30;;;3.60;99.90;;;;;;5049408;28;20244;-84
2021/12/06 08:58:50;;;;;;;10.27;9.10;;;3.60;99.90;;;;;;5049508;28;20317;-84
2021/12/06 09:01:19;;;;;;;10.23;8.77;;;3.60;99.90;;;;;;5050105;27;20308;-83
2021/12/06 09:04:11;;;;;;;10.73;9.13;;;3.70;99.90;;;;;;5050496;28;20209;-84
2021/12/06 09:06:44;;;;;;;12.43;9.18;;;3.80;99.90;;;;;;5050232;27;20224;-84
2021/12/06 09:09:13;;;;;;;10.50;8.88;;;3.80;99.90;;;;;;5050063;27;20206;-84
2021/12/06 09:11:43;;;;;;;11.68;9.32;;;3.90;99.90;;;;;;5048923;27;20305;-84
2021/12/06 09:14:13;;;;;;;11.50;9.75;;;3.90;99.90;;;;;;5050216;28;20232;-84
2021/12/06 09:16:42;;;;;;;11.50;9.73;;;4.00;99.90;;;;;;5050650;28;20237;-84
2021/12/06 09:19:12;;;;;;;11.10;9.60;;;3.90;99.90;;;;;;5049711;27;20205;-84
2021/12/06 09:21:43;;;;;;;10.10;9.07;;;3.90;99.90;;;;;;5050068;28;20289;-84
2021/12/06 09:24:15;;;;;;;10.98;9.88;;;4.00;99.90;;;;;;5050352;28;20206;-84
2021/12/06 09:26:44;;;;;;;14.77;8.95;;;4.00;99.90;;;;;;5049897;28;20241;-86
2021/12/06 09:29:13;;;;;;;10.85;9.73;;;4.10;99.90;;;;;;5049698;28;20266;-84
2021/12/06 09:31:42;;;;;;;13.85;9.48;;;4.10;99.90;;;;;;5049761;28;20228;-84
2021/12/06 09:34:11;;;;;;;12.00;10.02;;;4.20;99.90;;;;;;5049793;28;20202;-84
2021/12/06 09:36:41;;;;;;;15.85;10.02;;;4.30;99.90;;;;;;5050073;28;20210;-84
2021/12/06 09:39:13;;;;;;;9.02;8.20;;;4.40;99.90;;;;;;5049536;27;20227;-84
2021/12/06 09:41:43;;;;;;;11.60;8.40;;;4.60;99.90;;;;;;5050002;27;20274;-84
2021/12/06 09:44:13;;;;;;;11.80;10.43;;;4.70;99.90;;;;;;5050018;28;20210;-84
2021/12/06 09:46:42;;;;;;;14.82;11.43;;;4.80;99.90;;;;;;5049792;28;20230;-84
2021/12/06 09:49:14;;;;;;;9.55;8.52;;;4.90;99.90;;;;;;5049513;28;20206;-84
2021/12/06 09:51:50;;;;;;;9.70;8.70;;;5.10;99.90;;;;;;5049936;27;20218;-84
2021/12/06 09:54:20;;;;;;;9.77;8.45;;;5.10;99.90;;;;;;5049812;28;20209;-84
2021/12/06 09:56:50;;;;;;;10.00;8.95;;;5.10;99.90;;;;;;5049512;27;20249;-84
2021/12/06 09:59:20;;;;;;;10.32;8.95;;;5.10;99.90;;;;;;5049354;28;20302;-84
2021/12/06 10:01:53;;;;;;;11.43;8.55;;;5.10;99.90;;;;;;5049564;28;20244;-84
2021/12/06 10:04:25;;;;;;;10.02;8.85;;;5.10;99.90;;;;;;5049683;27;20225;-84
2021/12/06 10:06:55;;;;;;;11.45;7.45;;;5.10;99.90;;;;;;5049423;28;20312;-85
2021/12/06 10:09:25;;;;;;;11.48;8.88;;;5.10;99.90;;;;;;5048746;27;20225;-84
2021/12/06 10:11:56;;;;;;;9.63;8.55;;;5.10;99.90;;;;;;5049538;28;20256;-84
2021/12/06 10:14:25;;;;;;;11.05;7.50;;;5.10;99.90;;;;;;5049275;28;20240;-84
2021/12/06 10:16:53;;;;;;;9.90;8.43;;;5.10;99.90;;;;;;5048946;28;20292;-84
2021/12/06 10:19:23;;;;;;;8.30;7.60;;;5.10;99.90;;;;;;5048656;27;20210;-84
2021/12/06 10:21:53;;;;;;;9.82;7.88;;;5.10;99.90;;;;;;5049152;28;20257;-84
2021/12/06 10:24:26;;;;;;;8.85;7.95;;;5.10;99.90;;;;;;5049982;28;20233;-84
2021/12/06 10:27:04;;;;;;;8.85;8.05;;;5.00;99.90;;;;;;5049229;27;20217;-84
2021/12/06 10:29:39;;;;;;;10.65;9.32;;;4.90;99.90;;;;;;5048989;28;20241;-84
2021/12/06 10:32:14;;;;;;;12.27;9.05;;;4.80;99.90;;;;;;5048966;28;20282;-84
2021/12/06 10:34:49;;;;;;;10.77;8.77;;;4.80;99.90;;;;;;5049241;27;20205;-84
2021/12/06 10:37:32;;;;;;;14.05;8.48;;;4.70;99.90;;;;;;5048263;28;20293;-84
2021/12/06 10:40:05;;;;;;;8.88;7.97;;;4.70;99.90;;;;;;5048807;28;20237;-84
2021/12/06 10:42:36;;;;;;;9.55;8.57;;;4.70;99.90;;;;;;5049230;28;20273;-84
2021/12/06 10:45:08;;;;;;;9.00;7.93;;;4.60;99.90;;;;;;5049055;28;20305;-84
2021/12/06 10:47:37;;;;;;;9.38;8.45;;;4.60;99.90;;;;;;5048901;27;20222;-84
2021/12/06 10:50:12;;;;;;;10.23;8.45;;;4.60;99.90;;;;;;5048721;28;20202;-84
2021/12/06 10:52:56;;;;;;;9.30;7.18;;;4.60;99.90;;;;;;5048755;28;20313;-84
2021/12/06 10:55:31;;;;;;;11.82;8.80;;;4.60;99.90;;;;;;5049407;27;20229;-84
2021/12/06 10:58:01;;;;;;;9.18;7.55;;;4.60;99.90;;;;;;5048606;28;20264;-84
2021/12/06 11:00:36;;;;;;;8.52;7.68;;;4.70;99.90;;;;;;5048465;28;20209;-84
2021/12/06 11:03:17;;;;;;;8.75;7.45;;;4.60;99.90;;;;;;5048793;27;20210;-84
2021/12/06 11:05:46;;;;;;;10.00;9.00;;;4.60;99.90;;;;;;5048508;28;20225;-84
2021/12/06 11:08:16;;;;;;;8.80;7.90;;;4.60;99.90;;;;;;5048379;28;20242;-84
2021/12/06 11:10:49;;;;;;;10.23;7.85;;;4.60;99.90;;;;;;5048301;28;20249;-85
2021/12/06 11:13:23;;;;;;;9.50;8.68;;;4.50;99.90;;;;;;5047075;28;20302;-84
2021/12/06 11:16:05;;;;;;;10.75;8.15;;;4.50;99.90;;;;;;5049091;27;20209;-84
2021/12/06 11:18:40;;;;;;;12.63;9.60;;;4.50;99.90;;;;;;5048857;28;20230;-84
2021/12/06 11:21:23;;;;;;;10.48;9.43;;;4.50;99.90;;;;;;5050741;28;20233;-84
2021/12/06 11:24:08;;;;;;;14.32;10.05;;;4.50;99.90;;;;;;5051832;28;20222;-84
2021/12/06 11:26:40;;;;;;;12.68;9.35;;;4.50;99.90;;;;;;5051949;28;20302;-84
2021/12/06 11:29:15;;;;;;;8.02;7.22;;;4.40;99.90;;;;;;5051676;28;20202;-84
2021/12/06 11:31:51;;;;;;;9.75;8.48;;;4.40;99.90;;;;;;5051734;28;20288;-84
2021/12/06 11:34:20;;;;;;;10.70;9.60;;;4.50;99.90;;;;;;5051713;27;20210;-84
2021/12/06 11:36:52;;;;;;;10.77;9.32;;;4.50;99.90;;;;;;5051793;28;20218;-84
2021/12/06 11:39:23;;;;;;;11.52;8.85;;;4.50;99.90;;;;;;5051600;28;20210;-84
2021/12/06 11:41:58;;;;;;;13.43;9.52;;;4.60;99.90;;;;;;5051413;28;20252;-84
2021/12/06 11:44:30;;;;;;;10.15;8.85;;;4.60;99.90;;;;;;5052022;28;20201;-84
2021/12/06 11:47:04;;;;;;;16.20;9.98;;;4.60;99.90;;;;;;5051603;28;20206;-84
2021/12/06 11:49:37;;;;;;;9.63;8.50;;;4.50;99.90;;;;;;5051028;27;20210;-84
2021/12/06 11:52:08;;;;;;;9.00;8.05;;;4.60;99.90;;;;;;5051338;28;20237;-84
2021/12/06 11:54:39;;;;;;;13.32;9.27;;;4.50;99.90;;;;;;5051536;28;20210;-84
2021/12/06 11:57:21;;;;;;;9.45;8.38;;;4.50;99.90;;;;;;5051259;28;20230;-84
2021/12/06 11:59:56;;;;;;;13.95;9.57;;;4.50;99.90;;;;;;5050715;28;20233;-84
2021/12/06 12:02:44;;;;;;;9.88;7.65;;;4.50;99.90;;;;;;5050988;28;20209;-84
2021/12/06 12:05:19;;;;;;;9.18;8.20;;;4.50;99.90;;;;;;5051355;27;20233;-84
2021/12/06 12:08:08;;;;;;;10.15;8.50;;;4.50;99.90;;;;;;5051445;27;20237;-84
2021/12/06 12:10:44;;;;;;;9.75;7.47;;;4.50;99.90;;;;;;5050958;28;20270;-84
2021/12/06 12:13:23;;;;;;;8.73;7.60;;;4.50;99.90;;;;;;5049843;28;20337;-84
2021/12/06 12:15:52;;;;;;;11.07;8.77;;;4.50;99.90;;;;;;5050997;28;20205;-84
2021/12/06 12:18:21;;;;;;;9.15;8.18;;;4.50;99.90;;;;;;5051309;28;20273;-84
2021/12/06 12:20:53;;;;;;;15.07;8.43;;;4.50;99.90;;;;;;5050837;27;20217;-84
2021/12/06 12:23:23;;;;;;;17.08;8.57;;;4.60;99.90;;;;;;5051362;27;20210;-84
2021/12/06 12:25:56;;;;;;;10.43;7.70;;;4.60;99.90;;;;;;5050687;28;20319;-84
2021/12/06 12:28:31;;;;;;;17.88;9.90;;;4.60;99.90;;;;;;5050836;28;20321;-84
2021/12/06 12:31:00;;;;;;;10.40;7.25;;;4.60;99.90;;;;;;5050419;27;20308;-84
2021/12/06 12:33:29;;;;;;;7.75;6.43;;;4.70;99.90;;;;;;5050383;27;20230;-83
2021/12/06 12:36:02;;;;;;;8.63;7.72;;;4.70;99.90;;;;;;5050866;27;20214;-84
2021/12/06 12:38:33;;;;;;;19.00;11.18;;;4.70;99.90;;;;;;5050817;27;20233;-84
2021/12/06 12:41:06;;;;;;;29.98;7.22;;;4.70;99.90;;;;;;5050235;28;20214;-84
2021/12/06 12:43:38;;;;;;;8.32;6.85;;;4.70;99.90;;;;;;5050511;28;20198;-84
2021/12/06 12:46:09;;;;;;;9.25;6.70;;;4.80;99.90;;;;;;5051002;28;20346;-84
2021/12/06 12:48:53;;;;;;;33.10;7.32;;;4.70;99.90;;;;;;5050312;28;20241;-84
2021/12/06 12:51:25;;;;;;;7.35;5.68;;;4.70;99.90;;;;;;5050825;27;20239;-83
2021/12/06 12:54:01;;;;;;;7.07;5.28;;;4.70;99.90;;;;;;5050548;27;20310;-84
2021/12/06 12:56:33;;;;;;;5.60;4.75;;;4.70;99.90;;;;;;5050270;28;20217;-82
2021/12/06 12:59:25;;;;;;;5.22;4.80;;;4.70;99.90;;;;;;5049851;28;20285;-84
2021/12/06 13:02:31;;;;;;;7.03;6.03;;;4.80;99.90;;;;;;5050603;28;20210;-84
2021/12/06 13:05:26;;;;;;;7.60;4.97;;;4.80;99.90;;;;;;5091767;28;20239;-84
2021/12/06 13:08:07;;;;;;;9.80;4.72;;;4.90;99.90;;;;;;5091750;28;20288;-84
2021/12/06 13:10:45;;;;;;;7.03;5.70;;;4.90;99.90;;;;;;5059465;28;20210;-84
2021/12/06 13:13:28;;;;;;;6.00;5.40;;;4.90;99.90;;;;;;5050293;27;20229;-84
2021/12/06 13:16:03;;;;;;;7.50;4.47;;;4.90;99.90;;;;;;5050219;28;20266;-84
2021/12/06 13:18:50;;;;;;;4.80;3.67;;;4.90;99.90;;;;;;5050063;27;20227;-84
2021/12/06 13:21:48;;;;;;;4.75;4.32;;;4.90;99.90;;;;;;5050607;28;20285;-85
2021/12/06 13:24:27;;;;;;;5.80;4.43;;;4.90;99.90;;;;;;5049859;27;20297;-85